sensor_id;sensor_type;location;lat;lon;timestamp;pressure;altitude;pressure_sealevel;temperature;humidity
52949;BME280;38812;50.942;3.644;2023-02-13T00:02:21;103627.41;;;6.93;100.00
52949;BME280;38812;50.942;3.644;2023-02-13T00:04:46;103617.59;;;6.87;100.00
52949;BME280;38812;50.942;3.644;2023-02-13T00:07:12;103624.78;;;6.93;100.00
52949;BME280;38812;50.942;3.644;2023-02-13T00:09:37;103613.25;;;6.87;100.00
52949;BME280;38812;50.942;3.644;2023-02-13T00:12:04;103614.09;;;6.86;100.00
52949;BME280;38812;50.942;3.644;2023-02-13T00:14:30;103611.53;;;6.88;100.00
52949;BME280;38812;50.942;3.644;2023-02-13T00:16:55;103612.25;;;6.84;100.00
52949;BME280;38812;50.942;3.644;2023-02-13T00:19:20;103614.84;;;6.84;100.00
52949;BME280;38812;50.942;3.644;2023-02-13T00:21:46;103612.47;;;6.90;100.00
52949;BME280;38812;50.942;3.644;2023-02-13T00:24:11;103615.81;;;6.86;100.00
52949;BME280;38812;50.942;3.644;2023-02-13T00:26:37;103610.91;;;6.73;100.00
52949;BME280;38812;50.942;3.644;2023-02-13T00:29:04;103610.09;;;6.74;100.00
52949;BME280;38812;50.942;3.644;2023-02-13T00:31:29;103599.19;;;6.62;100.00
52949;BME280;38812;50.942;3.644;2023-02-13T00:33:55;103608.84;;;6.64;100.00
52949;BME280;38812;50.942;3.644;2023-02-13T00:36:21;103610.66;;;6.65;100.00
52949;BME280;38812;50.942;3.644;2023-02-13T00:38:47;103616.00;;;6.68;100.00
52949;BME280;38812;50.942;3.644;2023-02-13T00:41:13;103605.28;;;6.62;100.00
52949;BME280;38812;50.942;3.644;2023-02-13T00:43:38;103605.28;;;6.62;100.00
52949;BME280;38812;50.942;3.644;2023-02-13T00:46:04;103613.44;;;6.70;100.00
52949;BME280;38812;50.942;3.644;2023-02-13T00:48:31;103614.34;;;6.70;100.00
52949;BME280;38812;50.942;3.644;2023-02-13T00:50:57;103609.63;;;6.62;100.00
52949;BME280;38812;50.942;3.644;2023-02-13T00:53:24;103614.91;;;6.63;100.00
52949;BME280;38812;50.942;3.644;2023-02-13T00:55:50;103615.50;;;6.56;100.00
52949;BME280;38812;50.942;3.644;2023-02-13T00:58:17;103618.03;;;6.54;100.00
52949;BME280;38812;50.942;3.644;2023-02-13T01:00:43;103612.81;;;6.54;100.00
52949;BME280;38812;50.942;3.644;2023-02-13T01:03:08;103592.47;;;6.46;100.00
52949;BME280;38812;50.942;3.644;2023-02-13T01:05:34;103605.81;;;6.53;100.00
52949;BME280;38812;50.942;3.644;2023-02-13T01:07:59;103603.13;;;6.52;100.00
52949;BME280;38812;50.942;3.644;2023-02-13T01:10:25;103613.78;;;6.57;100.00
52949;BME280;38812;50.942;3.644;2023-02-13T01:12:51;103614.53;;;6.54;100.00
52949;BME280;38812;50.942;3.644;2023-02-13T01:15:17;103609.25;;;6.52;100.00
52949;BME280;38812;50.942;3.644;2023-02-13T01:17:42;103605.69;;;6.50;100.00
52949;BME280;38812;50.942;3.644;2023-02-13T01:20:09;103615.91;;;6.44;100.00
52949;BME280;38812;50.942;3.644;2023-02-13T01:22:35;103606.88;;;6.36;100.00
52949;BME280;38812;50.942;3.644;2023-02-13T01:25:01;103604.75;;;6.26;100.00
52949;BME280;38812;50.942;3.644;2023-02-13T01:27:27;103607.16;;;6.22;100.00
52949;BME280;38812;50.942;3.644;2023-02-13T01:29:52;103613.63;;;6.10;100.00
52949;BME280;38812;50.942;3.644;2023-02-13T01:32:17;103619.50;;;6.05;100.00
52949;BME280;38812;50.942;3.644;2023-02-13T01:34:43;103614.34;;;5.87;100.00
52949;BME280;38812;50.942;3.644;2023-02-13T01:37:08;103617.91;;;5.68;100.00
52949;BME280;38812;50.942;3.644;2023-02-13T01:39:34;103613.53;;;5.48;100.00
52949;BME280;38812;50.942;3.644;2023-02-13T01:41:59;103610.41;;;5.16;100.00
52949;BME280;38812;50.942;3.644;2023-02-13T01:47:13;103619.72;;;4.92;100.00
52949;BME280;38812;50.942;3.644;2023-02-13T01:49:40;103605.31;;;4.63;100.00
52949;BME280;38812;50.942;3.644;2023-02-13T01:52:08;103607.28;;;4.50;100.00
52949;BME280;38812;50.942;3.644;2023-02-13T01:54:35;103608.63;;;4.41;100.00
52949;BME280;38812;50.942;3.644;2023-02-13T01:57:06;103601.03;;;4.28;100.00
52949;BME280;38812;50.942;3.644;2023-02-13T01:59:39;103603.66;;;4.28;100.00
52949;BME280;38812;50.942;3.644;2023-02-13T02:02:07;103593.66;;;4.37;100.00
52949;BME280;38812;50.942;3.644;2023-02-13T02:04:35;103592.56;;;4.32;100.00
52949;BME280;38812;50.942;3.644;2023-02-13T02:07:09;103594.22;;;4.30;100.00
52949;BME280;38812;50.942;3.644;2023-02-13T02:09:40;103585.19;;;4.24;100.00
52949;BME280;38812;50.942;3.644;2023-02-13T02:12:30;103583.81;;;4.30;100.00
52949;BME280;38812;50.942;3.644;2023-02-13T02:14:59;103588.03;;;4.28;100.00
52949;BME280;38812;50.942;3.644;2023-02-13T02:17:26;103586.09;;;4.06;100.00
52949;BME280;38812;50.942;3.644;2023-02-13T02:19:58;103578.78;;;3.82;100.00
52949;BME280;38812;50.942;3.644;2023-02-13T02:27:49;103590.06;;;3.48;100.00
52949;BME280;38812;50.942;3.644;2023-02-13T02:35:35;103590.31;;;3.04;100.00
52949;BME280;38812;50.942;3.644;2023-02-13T02:38:25;103578.72;;;2.97;100.00
52949;BME280;38812;50.942;3.644;2023-02-13T02:41:01;103570.13;;;2.98;100.00
52949;BME280;38812;50.942;3.644;2023-02-13T02:43:47;103576.78;;;3.09;100.00
52949;BME280;38812;50.942;3.644;2023-02-13T02:49:05;103583.28;;;3.01;100.00
52949;BME280;38812;50.942;3.644;2023-02-13T02:52:04;103581.00;;;2.75;100.00
52949;BME280;38812;50.942;3.644;2023-02-13T02:54:39;103585.34;;;2.60;100.00
52949;BME280;38812;50.942;3.644;2023-02-13T02:57:31;103593.59;;;2.53;100.00
52949;BME280;38812;50.942;3.644;2023-02-13T03:00:17;103590.88;;;2.35;100.00
52949;BME280;38812;50.942;3.644;2023-02-13T03:03:11;103590.25;;;2.24;100.00
52949;BME280;38812;50.942;3.644;2023-02-13T03:06:00;103582.69;;;1.98;100.00
52949;BME280;38812;50.942;3.644;2023-02-13T03:08:36;103587.72;;;1.95;100.00
52949;BME280;38812;50.942;3.644;2023-02-13T03:11:21;103594.31;;;1.90;100.00
52949;BME280;38812;50.942;3.644;2023-02-13T03:14:24;103594.06;;;1.85;100.00
52949;BME280;38812;50.942;3.644;2023-02-13T03:16:51;103597.63;;;1.87;100.00
52949;BME280;38812;50.942;3.644;2023-02-13T03:20:07;103589.56;;;1.83;100.00
52949;BME280;38812;50.942;3.644;2023-02-13T03:36:49;103592.00;;;1.50;100.00
52949;BME280;38812;50.942;3.644;2023-02-13T03:42:10;103582.06;;;1.43;100.00
52949;BME280;38812;50.942;3.644;2023-02-13T03:47:37;103587.56;;;1.34;100.00
52949;BME280;38812;50.942;3.644;2023-02-13T03:50:04;103585.53;;;1.29;100.00
52949;BME280;38812;50.942;3.644;2023-02-13T03:52:38;103582.75;;;1.26;100.00
52949;BME280;38812;50.942;3.644;2023-02-13T03:55:19;103588.81;;;1.26;100.00
52949;BME280;38812;50.942;3.644;2023-02-13T03:58:16;103592.72;;;1.20;100.00
52949;BME280;38812;50.942;3.644;2023-02-13T04:01:04;103588.56;;;1.09;100.00
52949;BME280;38812;50.942;3.644;2023-02-13T04:06:21;103601.81;;;0.85;100.00
52949;BME280;38812;50.942;3.644;2023-02-13T04:08:48;103599.34;;;0.74;100.00
52949;BME280;38812;50.942;3.644;2023-02-13T04:11:36;103596.25;;;0.79;100.00
52949;BME280;38812;50.942;3.644;2023-02-13T04:14:07;103574.75;;;0.67;100.00
52949;BME280;38812;50.942;3.644;2023-02-13T04:16:51;103577.09;;;0.62;100.00
52949;BME280;38812;50.942;3.644;2023-02-13T04:19:18;103590.03;;;0.62;100.00
52949;BME280;38812;50.942;3.644;2023-02-13T04:21:49;103570.38;;;0.66;100.00
52949;BME280;38812;50.942;3.644;2023-02-13T04:24:18;103571.13;;;0.63;100.00
52949;BME280;38812;50.942;3.644;2023-02-13T04:26:44;103570.44;;;0.53;100.00
52949;BME280;38812;50.942;3.644;2023-02-13T04:29:10;103571.25;;;0.39;100.00
52949;BME280;38812;50.942;3.644;2023-02-13T04:31:35;103582.78;;;0.30;100.00
52949;BME280;38812;50.942;3.644;2023-02-13T04:34:01;103577.84;;;0.20;100.00
52949;BME280;38812;50.942;3.644;2023-02-13T04:36:26;103570.06;;;0.07;100.00
52949;BME280;38812;50.942;3.644;2023-02-13T04:38:51;103571.06;;;-0.04;100.00
52949;BME280;38812;50.942;3.644;2023-02-13T04:41:17;103585.16;;;-0.12;100.00
52949;BME280;38812;50.942;3.644;2023-02-13T04:43:43;103583.75;;;-0.20;100.00
52949;BME280;38812;50.942;3.644;2023-02-13T04:46:09;103581.97;;;-0.21;100.00
52949;BME280;38812;50.942;3.644;2023-02-13T04:48:34;103576.47;;;-0.39;100.00
52949;BME280;38812;50.942;3.644;2023-02-13T04:51:00;103580.13;;;-0.49;100.00
52949;BME280;38812;50.942;3.644;2023-02-13T04:53:25;103593.16;;;-0.47;100.00
52949;BME280;38812;50.942;3.644;2023-02-13T04:55:51;103582.03;;;-0.46;100.00
52949;BME280;38812;50.942;3.644;2023-02-13T04:58:16;103585.00;;;-0.40;100.00
52949;BME280;38812;50.942;3.644;2023-02-13T05:00:42;103581.72;;;-0.51;100.00
52949;BME280;38812;50.942;3.644;2023-02-13T05:03:09;103583.50;;;-0.50;100.00
52949;BME280;38812;50.942;3.644;2023-02-13T05:05:35;103575.66;;;-0.51;100.00
52949;BME280;38812;50.942;3.644;2023-02-13T05:08:01;103581.28;;;-0.57;100.00
52949;BME280;38812;50.942;3.644;2023-02-13T05:10:27;103577.44;;;-0.50;100.00
52949;BME280;38812;50.942;3.644;2023-02-13T05:12:53;103578.13;;;-0.53;100.00
52949;BME280;38812;50.942;3.644;2023-02-13T05:15:18;103574.56;;;-0.55;100.00
52949;BME280;38812;50.942;3.644;2023-02-13T05:17:44;103579.03;;;-0.52;100.00
52949;BME280;38812;50.942;3.644;2023-02-13T05:20:10;103576.97;;;-0.45;100.00
52949;BME280;38812;50.942;3.644;2023-02-13T05:22:36;103572.00;;;-0.42;100.00
52949;BME280;38812;50.942;3.644;2023-02-13T05:25:20;103603.50;;;-0.47;100.00
52949;BME280;38812;50.942;3.644;2023-02-13T05:27:45;103585.84;;;-0.28;100.00
52949;BME280;38812;50.942;3.644;2023-02-13T05:30:11;103568.03;;;-0.37;100.00
52949;BME280;38812;50.942;3.644;2023-02-13T05:32:37;103575.78;;;-0.37;100.00
52949;BME280;38812;50.942;3.644;2023-02-13T05:35:03;103575.78;;;-0.37;100.00
52949;BME280;38812;50.942;3.644;2023-02-13T05:37:29;103579.25;;;-0.36;100.00
52949;BME280;38812;50.942;3.644;2023-02-13T05:39:54;103578.84;;;-0.42;100.00
52949;BME280;38812;50.942;3.644;2023-02-13T05:42:19;103576.09;;;-0.45;100.00
52949;BME280;38812;50.942;3.644;2023-02-13T05:44:45;103584.19;;;-0.52;100.00
52949;BME280;38812;50.942;3.644;2023-02-13T05:47:10;103552.31;;;-0.53;100.00
52949;BME280;38812;50.942;3.644;2023-02-13T05:49:36;103582.50;;;-0.52;100.00
52949;BME280;38812;50.942;3.644;2023-02-13T05:52:01;103583.66;;;-0.60;100.00
52949;BME280;38812;50.942;3.644;2023-02-13T05:54:26;103585.56;;;-0.57;100.00
52949;BME280;38812;50.942;3.644;2023-02-13T05:56:52;103580.69;;;-0.66;100.00
52949;BME280;38812;50.942;3.644;2023-02-13T05:59:17;103580.09;;;-0.62;100.00
52949;BME280;38812;50.942;3.644;2023-02-13T06:01:43;103581.66;;;-0.64;100.00
52949;BME280;38812;50.942;3.644;2023-02-13T06:04:08;103620.38;;;-0.64;100.00
52949;BME280;38812;50.942;3.644;2023-02-13T06:06:34;103587.16;;;-0.59;100.00
52949;BME280;38812;50.942;3.644;2023-02-13T06:08:59;103576.13;;;-0.57;100.00
52949;BME280;38812;50.942;3.644;2023-02-13T06:11:24;103579.13;;;-0.51;100.00
52949;BME280;38812;50.942;3.644;2023-02-13T06:13:50;103581.16;;;-0.33;100.00
52949;BME280;38812;50.942;3.644;2023-02-13T06:16:15;103580.59;;;-0.16;100.00
52949;BME280;38812;50.942;3.644;2023-02-13T06:18:41;103576.94;;;-0.07;100.00
52949;BME280;38812;50.942;3.644;2023-02-13T06:21:06;103584.56;;;0.05;100.00
52949;BME280;38812;50.942;3.644;2023-02-13T06:23:33;103588.53;;;-0.13;100.00
52949;BME280;38812;50.942;3.644;2023-02-13T06:26:03;103587.91;;;-0.36;100.00
52949;BME280;38812;50.942;3.644;2023-02-13T06:28:29;103581.94;;;-0.48;100.00
52949;BME280;38812;50.942;3.644;2023-02-13T06:30:54;103584.94;;;-0.28;100.00
52949;BME280;38812;50.942;3.644;2023-02-13T06:33:20;103589.44;;;-0.26;100.00
52949;BME280;38812;50.942;3.644;2023-02-13T06:35:45;103584.94;;;-0.28;100.00
52949;BME280;38812;50.942;3.644;2023-02-13T06:38:10;103580.25;;;-0.47;100.00
52949;BME280;38812;50.942;3.644;2023-02-13T06:40:36;103586.69;;;-0.54;100.00
52949;BME280;38812;50.942;3.644;2023-02-13T06:43:01;103599.94;;;-0.61;100.00
52949;BME280;38812;50.942;3.644;2023-02-13T06:45:27;103590.31;;;-0.63;100.00
52949;BME280;38812;50.942;3.644;2023-02-13T06:47:52;103605.22;;;-0.59;100.00
52949;BME280;38812;50.942;3.644;2023-02-13T06:50:17;103595.63;;;-0.49;100.00
52949;BME280;38812;50.942;3.644;2023-02-13T06:52:47;103604.75;;;-0.54;100.00
52949;BME280;38812;50.942;3.644;2023-02-13T06:55:14;103614.94;;;-0.44;100.00
52949;BME280;38812;50.942;3.644;2023-02-13T06:57:40;103621.47;;;-0.49;100.00
52949;BME280;38812;50.942;3.644;2023-02-13T07:00:06;103601.00;;;-0.46;100.00
52949;BME280;38812;50.942;3.644;2023-02-13T07:02:32;103596.63;;;-0.47;100.00
52949;BME280;38812;50.942;3.644;2023-02-13T07:04:57;103600.94;;;-0.59;100.00
52949;BME280;38812;50.942;3.644;2023-02-13T07:07:23;103606.50;;;-0.66;100.00
52949;BME280;38812;50.942;3.644;2023-02-13T07:09:48;103614.25;;;-0.66;100.00
52949;BME280;38812;50.942;3.644;2023-02-13T07:12:14;103621.81;;;-0.81;100.00
52949;BME280;38812;50.942;3.644;2023-02-13T07:14:39;103617.31;;;-0.72;100.00
52949;BME280;38812;50.942;3.644;2023-02-13T07:17:04;103614.84;;;-0.82;100.00
52949;BME280;38812;50.942;3.644;2023-02-13T07:19:30;103631.91;;;-0.72;100.00
52949;BME280;38812;50.942;3.644;2023-02-13T07:21:56;103622.09;;;-0.89;100.00
52949;BME280;38812;50.942;3.644;2023-02-13T07:24:21;103614.47;;;-0.99;100.00
52949;BME280;38812;50.942;3.644;2023-02-13T07:26:46;103627.59;;;-0.96;100.00
52949;BME280;38812;50.942;3.644;2023-02-13T07:29:12;103633.56;;;-0.97;100.00
52949;BME280;38812;50.942;3.644;2023-02-13T07:31:38;103643.53;;;-0.90;100.00
52949;BME280;38812;50.942;3.644;2023-02-13T07:34:03;103640.06;;;-0.91;100.00
52949;BME280;38812;50.942;3.644;2023-02-13T07:36:29;103640.78;;;-0.80;100.00
52949;BME280;38812;50.942;3.644;2023-02-13T07:38:54;103635.88;;;-0.64;100.00
52949;BME280;38812;50.942;3.644;2023-02-13T07:41:20;103641.69;;;-0.55;100.00
52949;BME280;38812;50.942;3.644;2023-02-13T07:43:45;103637.34;;;-0.43;100.00
52949;BME280;38812;50.942;3.644;2023-02-13T07:46:10;103637.50;;;-0.28;100.00
52949;BME280;38812;50.942;3.644;2023-02-13T07:48:36;103642.59;;;-0.16;100.00
52949;BME280;38812;50.942;3.644;2023-02-13T07:51:03;103630.91;;;0.02;100.00
52949;BME280;38812;50.942;3.644;2023-02-13T07:53:30;103627.84;;;0.34;100.00
52949;BME280;38812;50.942;3.644;2023-02-13T07:55:55;103642.06;;;0.54;100.00
52949;BME280;38812;50.942;3.644;2023-02-13T07:58:21;103634.09;;;0.64;100.00
52949;BME280;38812;50.942;3.644;2023-02-13T08:00:46;103627.50;;;0.82;100.00
52949;BME280;38812;50.942;3.644;2023-02-13T08:03:12;103644.56;;;0.93;100.00
52949;BME280;38812;50.942;3.644;2023-02-13T08:05:37;103644.66;;;1.36;100.00
52949;BME280;38812;50.942;3.644;2023-02-13T08:08:03;103644.28;;;1.73;100.00
52949;BME280;38812;50.942;3.644;2023-02-13T08:10:29;103635.53;;;2.15;100.00
52949;BME280;38812;50.942;3.644;2023-02-13T08:13:13;103636.84;;;2.68;100.00
52949;BME280;38812;50.942;3.644;2023-02-13T08:15:39;103634.25;;;2.99;100.00
52949;BME280;38812;50.942;3.644;2023-02-13T08:18:05;103622.88;;;3.30;100.00
52949;BME280;38812;50.942;3.644;2023-02-13T08:20:31;103643.03;;;3.34;100.00
52949;BME280;38812;50.942;3.644;2023-02-13T08:23:07;103636.22;;;3.20;100.00
52949;BME280;38812;50.942;3.644;2023-02-13T08:25:33;103635.56;;;3.24;100.00
52949;BME280;38812;50.942;3.644;2023-02-13T08:27:59;103633.28;;;3.46;100.00
52949;BME280;38812;50.942;3.644;2023-02-13T08:30:25;103637.06;;;3.69;100.00
52949;BME280;38812;50.942;3.644;2023-02-13T08:32:51;103627.63;;;3.87;100.00
52949;BME280;38812;50.942;3.644;2023-02-13T08:35:16;103618.06;;;3.54;100.00
52949;BME280;38812;50.942;3.644;2023-02-13T08:37:41;103624.81;;;4.18;100.00
52949;BME280;38812;50.942;3.644;2023-02-13T08:40:07;103627.50;;;4.73;100.00
52949;BME280;38812;50.942;3.644;2023-02-13T08:42:36;103621.22;;;5.06;100.00
52949;BME280;38812;50.942;3.644;2023-02-13T08:45:02;103631.53;;;5.61;100.00
52949;BME280;38812;50.942;3.644;2023-02-13T08:47:28;103626.25;;;6.21;100.00
52949;BME280;38812;50.942;3.644;2023-02-13T08:49:53;103619.34;;;6.43;100.00
52949;BME280;38812;50.942;3.644;2023-02-13T08:52:19;103624.34;;;6.82;100.00
52949;BME280;38812;50.942;3.644;2023-02-13T08:54:44;103610.66;;;7.11;100.00
52949;BME280;38812;50.942;3.644;2023-02-13T08:57:09;103610.72;;;7.37;100.00
52949;BME280;38812;50.942;3.644;2023-02-13T08:59:35;103608.84;;;7.58;100.00
52949;BME280;38812;50.942;3.644;2023-02-13T09:02:00;103615.38;;;7.69;100.00
52949;BME280;38812;50.942;3.644;2023-02-13T09:04:26;103605.97;;;8.01;100.00
52949;BME280;38812;50.942;3.644;2023-02-13T09:06:52;103609.22;;;8.19;100.00
52949;BME280;38812;50.942;3.644;2023-02-13T09:09:17;103606.88;;;8.29;100.00
52949;BME280;38812;50.942;3.644;2023-02-13T09:11:43;103592.00;;;8.81;100.00
52949;BME280;38812;50.942;3.644;2023-02-13T09:14:08;103595.19;;;9.01;100.00
52949;BME280;38812;50.942;3.644;2023-02-13T09:16:34;103592.06;;;9.14;100.00
52949;BME280;38812;50.942;3.644;2023-02-13T09:18:59;103589.19;;;9.37;100.00
52949;BME280;38812;50.942;3.644;2023-02-13T09:21:24;103598.91;;;9.39;100.00
52949;BME280;38812;50.942;3.644;2023-02-13T09:23:50;103603.28;;;9.72;100.00
52949;BME280;38812;50.942;3.644;2023-02-13T09:26:16;103604.31;;;9.78;100.00
52949;BME280;38812;50.942;3.644;2023-02-13T09:28:42;103592.94;;;9.78;100.00
52949;BME280;38812;50.942;3.644;2023-02-13T09:31:16;103605.19;;;10.12;100.00
52949;BME280;38812;50.942;3.644;2023-02-13T09:33:43;103607.13;;;10.19;100.00
52949;BME280;38812;50.942;3.644;2023-02-13T09:36:11;103612.31;;;10.52;100.00
52949;BME280;38812;50.942;3.644;2023-02-13T09:38:39;103609.56;;;10.47;100.00
52949;BME280;38812;50.942;3.644;2023-02-13T09:41:11;103606.16;;;10.51;100.00
52949;BME280;38812;50.942;3.644;2023-02-13T09:46:17;103611.19;;;10.42;100.00
52949;BME280;38812;50.942;3.644;2023-02-13T09:48:47;103600.56;;;10.75;100.00
52949;BME280;38812;50.942;3.644;2023-02-13T09:51:16;103599.88;;;10.82;100.00
52949;BME280;38812;50.942;3.644;2023-02-13T09:53:55;103600.22;;;10.58;100.00
52949;BME280;38812;50.942;3.644;2023-02-13T09:56:43;103589.28;;;10.42;100.00
52949;BME280;38812;50.942;3.644;2023-02-13T10:02:01;103595.59;;;10.89;100.00
52949;BME280;38812;50.942;3.644;2023-02-13T10:04:45;103596.97;;;11.12;100.00
52949;BME280;38812;50.942;3.644;2023-02-13T10:07:29;103596.19;;;11.16;100.00
52949;BME280;38812;50.942;3.644;2023-02-13T10:12:43;103597.72;;;11.07;100.00
52949;BME280;38812;50.942;3.644;2023-02-13T10:18:05;103588.34;;;11.19;100.00
52949;BME280;38812;50.942;3.644;2023-02-13T10:23:21;103573.84;;;10.96;100.00
52949;BME280;38812;50.942;3.644;2023-02-13T10:26:21;103592.44;;;11.05;100.00
52949;BME280;38812;50.942;3.644;2023-02-13T10:28:54;103581.91;;;11.05;100.00
52949;BME280;38812;50.942;3.644;2023-02-13T10:31:42;103600.66;;;11.20;100.00
52949;BME280;38812;50.942;3.644;2023-02-13T10:34:15;103590.13;;;11.20;100.00
52949;BME280;38812;50.942;3.644;2023-02-13T10:36:44;103577.88;;;11.22;100.00
52949;BME280;38812;50.942;3.644;2023-02-13T10:39:26;103581.94;;;11.52;100.00
52949;BME280;38812;50.942;3.644;2023-02-13T10:55:53;103566.63;;;11.76;100.00
52949;BME280;38812;50.942;3.644;2023-02-13T11:03:29;103560.03;;;12.02;100.00
52949;BME280;38812;50.942;3.644;2023-02-13T11:05:56;103546.91;;;12.04;100.00
52949;BME280;38812;50.942;3.644;2023-02-13T11:08:25;103549.63;;;12.10;100.00
52949;BME280;38812;50.942;3.644;2023-02-13T11:10:51;103561.50;;;12.41;100.00
52949;BME280;38812;50.942;3.644;2023-02-13T11:13:22;103548.78;;;12.14;100.00
52949;BME280;38812;50.942;3.644;2023-02-13T11:16:00;103553.34;;;12.23;100.00
52949;BME280;38812;50.942;3.644;2023-02-13T11:18:29;103549.72;;;12.18;100.00
52949;BME280;38812;50.942;3.644;2023-02-13T11:21:06;103555.72;;;12.06;100.00
52949;BME280;38812;50.942;3.644;2023-02-13T11:23:39;103553.00;;;12.01;100.00
52949;BME280;38812;50.942;3.644;2023-02-13T11:26:10;103555.22;;;12.30;100.00
52949;BME280;38812;50.942;3.644;2023-02-13T11:28:52;103553.81;;;12.55;100.00
52949;BME280;38812;50.942;3.644;2023-02-13T11:31:59;103549.13;;;12.35;100.00
52949;BME280;38812;50.942;3.644;2023-02-13T11:34:33;103547.28;;;12.28;100.00
52949;BME280;38812;50.942;3.644;2023-02-13T11:39:36;103542.75;;;12.20;100.00
52949;BME280;38812;50.942;3.644;2023-02-13T11:42:02;103537.66;;;12.32;100.00
52949;BME280;38812;50.942;3.644;2023-02-13T11:44:30;103541.75;;;12.74;100.00
52949;BME280;38812;50.942;3.644;2023-02-13T11:46:58;103532.06;;;12.73;100.00
52949;BME280;38812;50.942;3.644;2023-02-13T11:49:31;103536.09;;;12.46;100.00
52949;BME280;38812;50.942;3.644;2023-02-13T11:52:00;103529.59;;;12.21;100.00
52949;BME280;38812;50.942;3.644;2023-02-13T11:57:00;103521.00;;;12.36;100.00
52949;BME280;38812;50.942;3.644;2023-02-13T11:59:30;103514.47;;;12.08;100.00
52949;BME280;38812;50.942;3.644;2023-02-13T12:04:36;103520.84;;;11.71;100.00
52949;BME280;38812;50.942;3.644;2023-02-13T12:07:09;103516.91;;;11.96;100.00
52949;BME280;38812;50.942;3.644;2023-02-13T12:09:38;103509.03;;;11.97;100.00
52949;BME280;38812;50.942;3.644;2023-02-13T12:12:04;103510.63;;;11.86;100.00
52949;BME280;38812;50.942;3.644;2023-02-13T12:14:37;103506.63;;;12.11;100.00
52949;BME280;38812;50.942;3.644;2023-02-13T12:17:06;103503.94;;;12.10;100.00
52949;BME280;38812;50.942;3.644;2023-02-13T12:19:46;103500.53;;;12.17;100.00
52949;BME280;38812;50.942;3.644;2023-02-13T12:22:42;103507.94;;;11.85;100.00
52949;BME280;38812;50.942;3.644;2023-02-13T12:25:38;103501.78;;;11.83;100.00
52949;BME280;38812;50.942;3.644;2023-02-13T12:41:50;103490.19;;;11.75;100.00
52949;BME280;38812;50.942;3.644;2023-02-13T12:49:59;103479.50;;;11.64;100.00
52949;BME280;38812;50.942;3.644;2023-02-13T12:55:27;103485.16;;;11.87;100.00
52949;BME280;38812;50.942;3.644;2023-02-13T13:01:02;103469.78;;;12.17;100.00
52949;BME280;38812;50.942;3.644;2023-02-13T13:03:51;103470.44;;;12.01;100.00
52949;BME280;38812;50.942;3.644;2023-02-13T13:12:04;103463.19;;;11.86;100.00
52949;BME280;38812;50.942;3.644;2023-02-13T13:14:42;103458.53;;;11.72;100.00
52949;BME280;38812;50.942;3.644;2023-02-13T13:23:29;103453.44;;;11.79;100.00
52949;BME280;38812;50.942;3.644;2023-02-13T13:26:08;103447.38;;;11.85;100.00
52949;BME280;38812;50.942;3.644;2023-02-13T13:28:41;103439.41;;;11.82;100.00
52949;BME280;38812;50.942;3.644;2023-02-13T13:31:10;103443.91;;;11.87;100.00
52949;BME280;38812;50.942;3.644;2023-02-13T13:33:40;103444.06;;;11.99;100.00
52949;BME280;38812;50.942;3.644;2023-02-13T13:49:52;103420.03;;;11.78;100.00
52949;BME280;38812;50.942;3.644;2023-02-13T13:52:35;103420.91;;;11.77;100.00
52949;BME280;38812;50.942;3.644;2023-02-13T13:55:02;103429.66;;;11.76;100.00
52949;BME280;38812;50.942;3.644;2023-02-13T14:05:57;103425.19;;;11.74;100.00
52949;BME280;38812;50.942;3.644;2023-02-13T14:11:26;103416.19;;;11.58;100.00
52949;BME280;38812;50.942;3.644;2023-02-13T14:13:52;103414.34;;;11.52;100.00
52949;BME280;38812;50.942;3.644;2023-02-13T14:16:43;103419.75;;;11.60;100.00
52949;BME280;38812;50.942;3.644;2023-02-13T14:19:37;103415.44;;;11.65;100.00
52949;BME280;38812;50.942;3.644;2023-02-13T14:24:55;103410.00;;;11.54;100.00
52949;BME280;38812;50.942;3.644;2023-02-13T14:29:55;103403.72;;;11.45;100.00
52949;BME280;38812;50.942;3.644;2023-02-13T14:32:32;103408.91;;;11.42;100.00
52949;BME280;38812;50.942;3.644;2023-02-13T14:35:00;103402.94;;;11.52;100.00
52949;BME280;38812;50.942;3.644;2023-02-13T14:37:33;103410.88;;;11.55;100.00
52949;BME280;38812;50.942;3.644;2023-02-13T14:42:57;103402.00;;;11.50;100.00
52949;BME280;38812;50.942;3.644;2023-02-13T14:45:30;103401.31;;;11.60;100.00
52949;BME280;38812;50.942;3.644;2023-02-13T14:48:01;103408.13;;;11.46;100.00
52949;BME280;38812;50.942;3.644;2023-02-13T14:50:52;103404.28;;;11.25;100.00
52949;BME280;38812;50.942;3.644;2023-02-13T14:53:25;103398.72;;;11.10;100.00
52949;BME280;38812;50.942;3.644;2023-02-13T14:56:04;103402.59;;;11.32;100.00
52949;BME280;38812;50.942;3.644;2023-02-13T14:58:32;103399.19;;;11.36;100.00
52949;BME280;38812;50.942;3.644;2023-02-13T15:01:32;103401.59;;;11.22;100.00
52949;BME280;38812;50.942;3.644;2023-02-13T15:04:00;103395.34;;;11.17;100.00
52949;BME280;38812;50.942;3.644;2023-02-13T15:06:34;103394.47;;;11.17;100.00
52949;BME280;38812;50.942;3.644;2023-02-13T15:09:05;103395.91;;;10.98;100.00
52949;BME280;38812;50.942;3.644;2023-02-13T15:11:41;103392.88;;;10.77;100.00
52949;BME280;38812;50.942;3.644;2023-02-13T15:14:32;103400.00;;;10.82;100.00
52949;BME280;38812;50.942;3.644;2023-02-13T15:17:03;103405.81;;;10.66;100.00
52949;BME280;38812;50.942;3.644;2023-02-13T15:19:31;103393.94;;;10.88;100.00
52949;BME280;38812;50.942;3.644;2023-02-13T15:21:59;103397.47;;;10.88;100.00
52949;BME280;38812;50.942;3.644;2023-02-13T15:24:28;103392.47;;;11.02;100.00
52949;BME280;38812;50.942;3.644;2023-02-13T15:27:02;103399.34;;;10.95;100.00
52949;BME280;38812;50.942;3.644;2023-02-13T15:29:28;103395.56;;;10.80;100.00
52949;BME280;38812;50.942;3.644;2023-02-13T15:31:54;103395.63;;;10.84;100.00